Terminal Aerodrome Forecast
Issued by NWS Atlanta, GA

Home | Current Version | Previous Version | Text Only | Print | Product List | Glossary On
Versions: 1 2 3 4 5 6 7 8 9 10 11 12 13 14 15 16 17 18 19 20 21
000
FTUS42 KFFC 280527
TAFAHN
TAF
KAHN 280527Z 2806/2906 00000KT 6SM -RA BR OVC025
     FM280800 00000KT 3SM -RA BR OVC015
     FM281100 00000KT 3SM -RA BR OVC004
     FM281700 22005KT 3SM -RA BR OVC007
     FM282200 25004KT 6SM BR VCSH OVC010
     FM290300 28004KT 4SM -RA BR OVC007=

USA.gov is the U.S. government's official web portal to all federal, state and local government web resources and services.